Time;durP1;ratioP1;P1;durP2;ratioP2;P2;SDS_P1;SDS_P2;PMS_P1;PMS_P2;Temp;Humidity;BMP_temperature;BMP_pressure;BME280_temperature;BME280_humidity;BME280_pressure;Samples;Min_cycle;Max_cycle;Signal;HPM_P1;HPM_P2
2022/07/24 00:00:19;;;;;;;1.60;1.17;;;21.20;66.10;;;;;;5051563;28;20029;-64
2022/07/24 00:02:44;;;;;;;1.25;1.15;;;21.20;66.20;;;;;;5051561;28;20112;-65
2022/07/24 00:05:10;;;;;;;0.85;0.80;;;21.20;66.20;;;;;;5050397;28;20037;-65
2022/07/24 00:07:36;;;;;;;1.30;1.20;;;21.20;66.30;;;;;;5051533;28;20077;-70
2022/07/24 00:10:04;;;;;;;3.30;1.48;;;21.10;66.20;;;;;;5052334;28;20352;-70
2022/07/24 00:12:30;;;;;;;0.90;0.80;;;21.10;66.30;;;;;;5050308;28;20120;-70
2022/07/24 00:14:56;;;;;;;1.65;1.42;;;21.10;66.20;;;;;;5049479;28;20107;-71
2022/07/24 00:17:21;;;;;;;1.10;0.95;;;21.10;66.40;;;;;;5049607;28;20363;-70
2022/07/24 00:19:47;;;;;;;0.80;0.80;;;21.10;66.50;;;;;;5050618;28;20033;-70
2022/07/24 00:22:13;;;;;;;1.17;1.08;;;21.10;66.70;;;;;;5051554;28;20425;-70
2022/07/24 00:24:38;;;;;;;1.80;1.33;;;21.00;66.80;;;;;;5031278;28;20060;-64
2022/07/24 00:27:04;;;;;;;1.10;1.00;;;21.00;66.80;;;;;;5051760;28;20422;-64
2022/07/24 00:29:30;;;;;;;2.67;1.88;;;21.00;66.90;;;;;;5051773;28;20037;-65
2022/07/24 00:31:56;;;;;;;1.70;1.40;;;21.00;67.00;;;;;;5051140;28;20040;-64
2022/07/24 00:34:21;;;;;;;1.30;1.13;;;20.90;67.00;;;;;;5050251;28;20032;-65
2022/07/24 00:36:47;;;;;;;1.27;1.02;;;20.90;67.10;;;;;;5059843;28;20041;-64
2022/07/24 00:39:13;;;;;;;2.15;1.35;;;20.90;67.10;;;;;;5050487;28;20041;-64
2022/07/24 00:41:38;;;;;;;1.10;1.00;;;20.90;67.10;;;;;;5051566;28;20068;-64
2022/07/24 00:44:11;;;;;;;1.20;1.10;;;20.80;67.10;;;;;;5051460;28;20040;-65
2022/07/24 00:46:39;;;;;;;1.45;1.02;;;20.80;67.30;;;;;;5050415;28;20032;-65
2022/07/24 00:49:06;;;;;;;1.20;1.00;;;20.80;67.30;;;;;;5051537;28;20442;-65
2022/07/24 00:51:34;;;;;;;1.55;0.77;;;20.70;67.40;;;;;;5048713;28;20032;-65
2022/07/24 00:53:59;;;;;;;2.83;0.98;;;20.70;67.40;;;;;;5047169;28;20028;-65
2022/07/24 00:56:25;;;;;;;1.02;1.02;;;20.70;67.50;;;;;;5050305;28;20028;-65
2022/07/24 00:58:51;;;;;;;1.52;1.10;;;20.70;67.60;;;;;;5052142;28;20104;-65
2022/07/24 01:01:18;;;;;;;1.95;1.35;;;20.70;67.60;;;;;;5050952;28;20424;-65
2022/07/24 01:03:44;;;;;;;1.67;1.30;;;20.60;67.70;;;;;;5051743;28;20021;-65
2022/07/24 01:06:10;;;;;;;1.75;1.27;;;20.60;67.60;;;;;;5050260;28;20051;-65
2022/07/24 01:08:36;;;;;;;1.17;1.08;;;20.60;67.70;;;;;;5049343;28;20112;-65
2022/07/24 01:11:06;;;;;;;1.58;1.48;;;20.60;67.70;;;;;;5049943;28;20057;-65
2022/07/24 01:13:32;;;;;;;1.00;1.00;;;20.60;67.80;;;;;;5049347;28;20029;-65
2022/07/24 01:15:59;;;;;;;3.13;1.55;;;20.50;67.80;;;;;;5049040;28;20033;-64
2022/07/24 01:18:25;;;;;;;1.13;1.02;;;20.50;67.90;;;;;;5051026;28;20557;-65
2022/07/24 01:20:50;;;;;;;2.72;1.25;;;20.50;67.90;;;;;;5050711;28;20552;-65
2022/07/24 01:23:16;;;;;;;1.20;1.08;;;20.50;67.90;;;;;;5049937;28;20028;-65
2022/07/24 01:25:42;;;;;;;1.35;1.25;;;20.50;68.00;;;;;;5048383;28;20141;-64
2022/07/24 01:28:08;;;;;;;1.30;1.20;;;20.50;68.10;;;;;;5049254;28;20044;-65
2022/07/24 01:30:34;;;;;;;2.80;1.10;;;20.50;68.10;;;;;;5064964;28;20041;-64
2022/07/24 01:33:01;;;;;;;1.27;1.17;;;20.40;68.20;;;;;;5051283;28;20051;-64
2022/07/24 01:35:26;;;;;;;1.40;1.30;;;20.40;68.30;;;;;;5049058;28;20056;-65
2022/07/24 01:37:53;;;;;;;2.10;1.65;;;20.40;68.30;;;;;;5050360;28;20076;-65
2022/07/24 01:40:20;;;;;;;1.90;1.50;;;20.40;68.30;;;;;;5049077;28;20507;-65
2022/07/24 01:42:46;;;;;;;1.63;1.30;;;20.40;68.50;;;;;;5050385;28;20024;-65
2022/07/24 01:45:11;;;;;;;2.08;1.08;;;20.40;68.40;;;;;;5049997;28;20524;-64
2022/07/24 01:47:37;;;;;;;1.45;1.17;;;20.40;68.50;;;;;;5047861;28;20021;-65
2022/07/24 01:50:03;;;;;;;1.58;1.25;;;20.30;68.40;;;;;;5046391;28;20040;-64
2022/07/24 01:52:29;;;;;;;1.75;1.20;;;20.30;68.50;;;;;;5049902;28;20502;-65
2022/07/24 01:54:54;;;;;;;1.98;1.38;;;20.30;68.50;;;;;;5046104;28;20029;-65
2022/07/24 01:57:20;;;;;;;1.85;1.05;;;20.30;68.60;;;;;;5046057;28;20060;-65
2022/07/24 01:59:46;;;;;;;1.60;1.40;;;20.30;68.60;;;;;;5045877;28;20036;-65
2022/07/24 02:02:12;;;;;;;3.10;2.13;;;20.20;68.60;;;;;;5039753;28;20160;-64
2022/07/24 02:04:38;;;;;;;1.23;1.13;;;20.20;68.60;;;;;;5061148;28;20100;-65
2022/07/24 02:07:04;;;;;;;1.60;1.15;;;20.20;68.60;;;;;;5041063;28;20130;-65
2022/07/24 02:09:30;;;;;;;1.95;1.85;;;20.20;68.60;;;;;;5040863;28;20067;-65
2022/07/24 02:11:55;;;;;;;1.48;1.38;;;20.20;68.70;;;;;;5056721;28;20073;-65
2022/07/24 02:14:21;;;;;;;1.13;1.02;;;20.10;68.70;;;;;;5060458;28;20025;-64
2022/07/24 02:17:07;;;;;;;1.52;1.40;;;20.10;68.70;;;;;;5042549;28;20403;-65
2022/07/24 02:19:32;;;;;;;2.75;1.73;;;20.10;68.70;;;;;;5041631;28;20096;-65
2022/07/24 02:21:58;;;;;;;1.80;1.38;;;20.10;68.80;;;;;;5044230;28;20348;-65
2022/07/24 02:24:24;;;;;;;2.03;1.77;;;20.00;68.80;;;;;;5049867;28;20040;-65
2022/07/24 02:26:50;;;;;;;1.45;1.33;;;20.00;68.90;;;;;;5047087;28;20086;-65
2022/07/24 02:29:16;;;;;;;2.70;2.00;;;20.00;69.00;;;;;;5049519;28;20060;-64
2022/07/24 02:31:41;;;;;;;1.98;1.42;;;20.00;69.10;;;;;;5047379;28;20029;-65
2022/07/24 02:34:07;;;;;;;4.28;1.25;;;20.00;69.30;;;;;;5047362;28;20052;-65
2022/07/24 02:36:32;;;;;;;2.22;1.02;;;19.90;69.30;;;;;;5045657;28;20044;-65
2022/07/24 02:38:58;;;;;;;3.88;1.75;;;19.90;69.40;;;;;;5043695;28;20083;-65
2022/07/24 02:41:24;;;;;;;1.52;0.90;;;19.90;69.50;;;;;;5045759;28;20029;-65
2022/07/24 02:43:50;;;;;;;1.40;1.30;;;19.80;69.50;;;;;;5044227;28;20044;-65
2022/07/24 02:46:16;;;;;;;2.88;2.33;;;19.80;69.40;;;;;;5043035;28;20640;-65
2022/07/24 02:48:41;;;;;;;1.88;1.70;;;19.80;69.50;;;;;;5045333;28;20033;-65
2022/07/24 02:51:07;;;;;;;2.05;1.58;;;19.80;69.60;;;;;;5049814;28;20029;-65
2022/07/24 02:53:33;;;;;;;1.52;1.30;;;19.80;69.70;;;;;;5045619;28;20075;-65
2022/07/24 02:55:59;;;;;;;1.50;1.40;;;19.70;69.80;;;;;;5046209;28;20054;-64
2022/07/24 02:58:25;;;;;;;4.55;1.73;;;19.70;69.80;;;;;;5045868;28;20650;-64
2022/07/24 03:00:53;;;;;;;3.10;1.90;;;19.70;70.00;;;;;;5047845;28;20566;-65
2022/07/24 03:03:19;;;;;;;1.30;1.20;;;19.70;70.00;;;;;;5042756;28;20029;-65
2022/07/24 03:05:44;;;;;;;2.10;1.70;;;19.70;70.00;;;;;;5040540;28;20030;-66
2022/07/24 03:08:10;;;;;;;1.80;1.63;;;19.70;70.00;;;;;;5046921;28;20056;-64
2022/07/24 03:10:36;;;;;;;2.33;1.50;;;19.70;70.00;;;;;;5042072;28;20037;-65
2022/07/24 03:13:01;;;;;;;1.55;1.45;;;19.70;70.00;;;;;;5048763;28;20123;-65
2022/07/24 03:15:27;;;;;;;2.63;1.67;;;19.70;70.00;;;;;;5043269;28;20112;-65
2022/07/24 03:17:57;;;;;;;1.67;1.40;;;19.60;69.90;;;;;;5041236;28;21861;-65
2022/07/24 03:20:28;;;;;;;3.25;2.03;;;19.60;70.00;;;;;;5043787;28;20027;-65
2022/07/24 03:22:54;;;;;;;2.47;1.88;;;19.60;70.20;;;;;;5048318;28;20021;-70
2022/07/24 03:25:21;;;;;;;1.70;1.60;;;19.60;70.30;;;;;;5045787;28;20052;-70
2022/07/24 03:27:47;;;;;;;2.65;1.88;;;19.60;70.40;;;;;;5044308;28;20037;-64
2022/07/24 03:30:14;;;;;;;2.03;1.75;;;19.50;70.40;;;;;;5061615;28;20029;-65
2022/07/24 03:32:40;;;;;;;1.63;1.40;;;19.50;70.50;;;;;;5045663;28;20118;-65
2022/07/24 03:35:06;;;;;;;1.63;1.50;;;19.50;70.60;;;;;;5043992;28;20121;-65
2022/07/24 03:37:32;;;;;;;1.95;1.80;;;19.40;70.70;;;;;;5040708;28;20131;-65
2022/07/24 03:39:58;;;;;;;3.30;2.20;;;19.40;70.70;;;;;;5039997;28;20592;-65
2022/07/24 03:42:24;;;;;;;1.60;1.50;;;19.40;70.80;;;;;;5037590;28;20022;-65
2022/07/24 03:44:49;;;;;;;2.63;1.88;;;19.40;70.80;;;;;;5041072;28;20514;-65
2022/07/24 03:47:15;;;;;;;3.60;1.80;;;19.40;70.90;;;;;;5040833;28;20036;-65
2022/07/24 03:49:41;;;;;;;3.13;2.35;;;19.40;70.90;;;;;;5040824;28;20180;-65
2022/07/24 03:52:07;;;;;;;1.50;1.40;;;19.40;70.90;;;;;;5044275;28;20108;-65
2022/07/24 03:54:33;;;;;;;2.00;1.80;;;19.30;71.00;;;;;;5043909;28;20395;-65
2022/07/24 03:56:58;;;;;;;1.90;1.70;;;19.40;71.10;;;;;;5041854;28;20034;-65
2022/07/24 03:59:24;;;;;;;2.03;1.83;;;19.40;71.70;;;;;;5041906;28;20033;-64
2022/07/24 04:01:50;;;;;;;2.67;2.00;;;19.40;70.90;;;;;;5044761;28;20032;-65
2022/07/24 04:04:16;;;;;;;2.10;1.90;;;19.40;71.00;;;;;;5048629;28;20084;-65
2022/07/24 04:06:41;;;;;;;2.22;1.80;;;19.40;71.00;;;;;;5062822;28;20065;-64
2022/07/24 04:09:08;;;;;;;2.17;1.98;;;19.40;71.00;;;;;;5046883;28;20029;-65
2022/07/24 04:11:34;;;;;;;3.00;1.80;;;19.40;71.10;;;;;;5041951;28;20025;-65
2022/07/24 04:14:00;;;;;;;2.38;2.05;;;19.40;71.00;;;;;;5042587;28;20036;-65
2022/07/24 04:16:26;;;;;;;3.13;1.73;;;19.40;71.10;;;;;;5042661;28;20044;-65
2022/07/24 04:18:52;;;;;;;2.85;1.73;;;19.40;71.20;;;;;;5048979;28;20472;-65
2022/07/24 04:21:18;;;;;;;1.85;1.73;;;19.40;71.30;;;;;;5045274;28;20036;-65
2022/07/24 04:23:44;;;;;;;4.85;2.28;;;19.40;71.50;;;;;;5044254;28;20484;-65
2022/07/24 04:26:09;;;;;;;2.40;2.13;;;19.40;71.50;;;;;;5050338;28;20462;-64
2022/07/24 04:28:35;;;;;;;2.65;2.17;;;19.40;71.50;;;;;;5046111;28;20040;-65
2022/07/24 04:31:01;;;;;;;2.40;1.92;;;19.40;71.50;;;;;;5050098;28;20676;-65
2022/07/24 04:33:27;;;;;;;1.60;1.50;;;19.50;71.60;;;;;;5066887;28;20472;-65
2022/07/24 04:35:53;;;;;;;2.63;2.10;;;19.50;71.70;;;;;;5045557;28;20083;-65
2022/07/24 04:38:18;;;;;;;2.63;2.03;;;19.50;71.70;;;;;;5065309;28;20443;-65
2022/07/24 04:40:44;;;;;;;2.53;2.30;;;19.50;71.70;;;;;;5044509;28;20037;-65
2022/07/24 04:43:10;;;;;;;2.40;1.58;;;19.50;71.70;;;;;;5060946;28;20071;-64
2022/07/24 04:45:35;;;;;;;2.08;1.88;;;19.50;71.80;;;;;;5043627;28;20815;-65
2022/07/24 04:48:02;;;;;;;3.10;2.30;;;19.50;71.80;;;;;;5041314;28;20075;-65
2022/07/24 04:50:28;;;;;;;5.47;2.33;;;19.60;71.90;;;;;;5043863;28;20033;-64
2022/07/24 04:52:53;;;;;;;2.80;2.22;;;19.60;71.90;;;;;;5060528;28;20029;-65
2022/07/24 04:55:19;;;;;;;2.38;2.17;;;19.70;72.50;;;;;;5046229;28;20045;-65
2022/07/24 04:57:45;;;;;;;2.53;2.17;;;19.70;71.90;;;;;;5050685;28;20116;-64
2022/07/24 05:00:13;;;;;;;3.10;1.70;;;19.80;71.80;;;;;;5041700;28;20467;-64
2022/07/24 05:02:39;;;;;;;2.80;2.30;;;19.80;71.80;;;;;;5046718;28;20091;-64
2022/07/24 05:05:05;;;;;;;3.67;2.05;;;19.90;71.90;;;;;;5037451;28;20029;-65
2022/07/24 05:07:31;;;;;;;1.98;1.75;;;19.90;71.90;;;;;;5046229;28;20106;-65
2022/07/24 05:09:57;;;;;;;3.53;2.47;;;20.00;71.90;;;;;;5045701;28;20033;-65
2022/07/24 05:12:23;;;;;;;3.75;2.60;;;20.10;71.80;;;;;;5043717;28;20025;-65
2022/07/24 05:14:49;;;;;;;2.63;1.60;;;20.20;71.60;;;;;;5046646;28;20051;-66
2022/07/24 05:17:15;;;;;;;3.35;2.28;;;20.30;71.50;;;;;;5043948;28;20049;-64
2022/07/24 05:19:43;;;;;;;2.47;1.73;;;20.30;71.30;;;;;;5044239;28;20033;-65
2022/07/24 05:22:09;;;;;;;4.13;2.65;;;20.40;71.30;;;;;;5041571;28;20033;-65
2022/07/24 05:24:34;;;;;;;2.55;2.30;;;20.40;71.10;;;;;;5045984;28;20586;-65
2022/07/24 05:27:00;;;;;;;5.97;3.28;;;20.50;71.10;;;;;;5042388;28;20038;-65
2022/07/24 05:29:26;;;;;;;3.03;2.72;;;20.50;71.00;;;;;;5043471;28;20037;-65
2022/07/24 05:31:54;;;;;;;3.50;3.03;;;20.60;71.00;;;;;;5048285;28;20033;-65
2022/07/24 05:34:20;;;;;;;3.33;2.92;;;20.60;70.90;;;;;;5043104;28;20112;-65
2022/07/24 05:36:46;;;;;;;7.00;3.90;;;20.70;70.70;;;;;;5042395;28;20376;-65
2022/07/24 05:39:12;;;;;;;5.10;2.90;;;20.70;70.70;;;;;;5045072;28;20039;-65
2022/07/24 05:41:38;;;;;;;4.68;3.85;;;20.80;70.60;;;;;;5049236;28;20037;-65
2022/07/24 05:44:04;;;;;;;3.45;3.15;;;20.80;70.40;;;;;;5043554;28;20045;-65
2022/07/24 05:46:32;;;;;;;4.13;3.05;;;20.90;70.20;;;;;;5058618;28;20112;-65
2022/07/24 05:48:58;;;;;;;5.25;3.72;;;20.90;70.00;;;;;;5051106;28;20503;-65
2022/07/24 05:51:25;;;;;;;3.95;3.25;;;21.00;70.00;;;;;;5050331;28;20040;-65
2022/07/24 05:53:51;;;;;;;5.20;3.80;;;21.10;69.80;;;;;;5049695;28;20049;-65
2022/07/24 05:56:17;;;;;;;5.53;4.03;;;21.20;69.80;;;;;;5045068;28;20071;-65
2022/07/24 05:58:42;;;;;;;7.63;4.30;;;21.30;69.60;;;;;;5043066;28;20028;-65
2022/07/24 06:01:08;;;;;;;6.45;3.97;;;21.30;69.40;;;;;;5043862;28;20472;-65
2022/07/24 06:03:34;;;;;;;6.28;4.88;;;21.30;69.20;;;;;;5045167;28;20038;-65
2022/07/24 06:05:59;;;;;;;4.22;3.53;;;21.40;69.20;;;;;;5040689;28;20551;-65
2022/07/24 06:08:25;;;;;;;7.70;5.20;;;21.50;69.20;;;;;;5042789;28;20492;-65
2022/07/24 06:10:50;;;;;;;4.70;3.53;;;21.50;69.10;;;;;;5043574;28;20040;-65
2022/07/24 06:13:16;;;;;;;8.77;5.68;;;21.50;69.10;;;;;;5030974;28;20096;-65
2022/07/24 06:15:42;;;;;;;11.02;5.78;;;21.60;69.00;;;;;;5039690;28;20552;-65
2022/07/24 06:18:07;;;;;;;5.72;3.85;;;21.60;69.00;;;;;;5043401;28;20366;-65
2022/07/24 06:20:33;;;;;;;4.63;4.13;;;21.60;69.00;;;;;;5042305;28;20354;-65
2022/07/24 06:22:59;;;;;;;6.43;3.38;;;21.70;68.90;;;;;;5059323;28;20047;-65
2022/07/24 06:25:24;;;;;;;5.72;3.45;;;21.80;68.70;;;;;;5042202;28;20073;-65
2022/07/24 06:27:57;;;;;;;4.60;3.78;;;21.90;68.60;;;;;;5045037;28;20429;-65
2022/07/24 06:30:27;;;;;;;6.07;3.80;;;22.00;68.20;;;;;;5047738;28;20025;-64
2022/07/24 06:32:58;;;;;;;6.93;3.90;;;22.10;67.80;;;;;;5046469;28;20685;-64
2022/07/24 06:35:24;;;;;;;6.15;2.97;;;22.10;67.10;;;;;;5048555;28;20037;-65
2022/07/24 06:37:50;;;;;;;3.97;2.95;;;22.20;66.80;;;;;;5044251;28;20061;-71
2022/07/24 06:40:16;;;;;;;4.63;2.83;;;22.20;66.60;;;;;;5045132;28;20578;-65
2022/07/24 06:42:43;;;;;;;3.67;2.60;;;22.30;66.30;;;;;;5060166;28;20404;-65
2022/07/24 06:45:09;;;;;;;3.35;2.13;;;22.30;66.00;;;;;;5039954;28;20070;-64
2022/07/24 06:47:35;;;;;;;4.63;3.38;;;22.40;65.70;;;;;;5044714;28;20033;-65
2022/07/24 06:50:00;;;;;;;4.40;3.60;;;22.40;64.50;;;;;;5046060;28;20727;-65
2022/07/24 06:52:26;;;;;;;4.28;2.20;;;22.40;64.50;;;;;;5047538;28;20091;-65
2022/07/24 06:54:52;;;;;;;3.78;2.85;;;22.50;64.60;;;;;;5043218;28;20116;-68
2022/07/24 06:57:18;;;;;;;2.60;2.08;;;22.60;64.10;;;;;;5048352;28;20108;-69
2022/07/24 06:59:44;;;;;;;5.22;2.28;;;22.60;63.10;;;;;;5032341;28;20033;-68
2022/07/24 07:02:10;;;;;;;3.33;2.75;;;22.70;62.60;;;;;;5048232;28;20025;-69
2022/07/24 07:04:35;;;;;;;2.60;1.95;;;22.70;62.10;;;;;;5048839;28;20059;-68
2022/07/24 07:07:02;;;;;;;5.93;2.88;;;22.80;62.50;;;;;;5040467;28;20076;-68
2022/07/24 07:09:28;;;;;;;2.83;2.00;;;22.90;62.50;;;;;;5040672;28;20029;-68
2022/07/24 07:11:54;;;;;;;3.80;2.30;;;23.00;62.10;;;;;;5043900;28;20042;-67
2022/07/24 07:14:20;;;;;;;2.53;2.22;;;23.10;61.50;;;;;;5049710;28;20479;-67
2022/07/24 07:16:46;;;;;;;3.95;3.00;;;23.20;61.10;;;;;;5050154;28;20040;-68
2022/07/24 07:19:11;;;;;;;4.93;2.55;;;23.30;61.00;;;;;;5046867;28;20033;-75
2022/07/24 07:21:37;;;;;;;3.30;2.13;;;23.30;59.80;;;;;;5050246;28;20786;-76
2022/07/24 07:24:04;;;;;;;4.30;1.60;;;23.40;60.00;;;;;;5048499;28;20025;-67
2022/07/24 07:26:32;;;;;;;2.25;1.95;;;23.40;59.50;;;;;;5047284;28;20037;-68
2022/07/24 07:28:58;;;;;;;4.07;3.00;;;23.50;59.20;;;;;;5049883;28;20033;-67
2022/07/24 07:31:26;;;;;;;2.50;2.00;;;23.60;59.00;;;;;;5050524;28;20086;-67
2022/07/24 07:33:52;;;;;;;2.13;1.88;;;23.60;59.00;;;;;;5050198;28;20045;-68
2022/07/24 07:36:17;;;;;;;4.28;2.22;;;23.70;58.90;;;;;;5050300;28;20048;-68
2022/07/24 07:38:43;;;;;;;2.10;1.48;;;23.80;58.60;;;;;;5051270;28;20098;-68
2022/07/24 07:41:08;;;;;;;1.27;1.08;;;23.90;58.50;;;;;;5044055;28;20576;-68
2022/07/24 07:43:34;;;;;;;2.25;1.73;;;24.00;58.10;;;;;;5045946;28;20041;-68
2022/07/24 07:46:00;;;;;;;1.58;1.42;;;24.10;56.30;;;;;;5031605;28;20119;-68
2022/07/24 07:48:26;;;;;;;1.83;1.58;;;24.10;55.10;;;;;;5049270;28;20037;-67
2022/07/24 07:50:52;;;;;;;2.70;1.60;;;24.10;54.90;;;;;;5043501;28;20060;-67
2022/07/24 07:53:18;;;;;;;1.58;0.98;;;24.10;54.80;;;;;;5050714;28;20060;-68
2022/07/24 07:55:48;;;;;;;1.20;1.10;;;24.20;55.40;;;;;;5048161;28;20060;-68
2022/07/24 07:58:14;;;;;;;3.15;1.33;;;24.30;55.20;;;;;;5050488;28;20082;-76
2022/07/24 08:00:39;;;;;;;2.17;1.17;;;24.40;54.60;;;;;;5067085;28;20037;-76
2022/07/24 08:03:05;;;;;;;2.78;1.20;;;24.50;54.20;;;;;;5044564;28;20372;-76
2022/07/24 08:05:31;;;;;;;4.35;1.83;;;24.50;54.20;;;;;;5048355;28;20111;-76
2022/07/24 08:07:56;;;;;;;1.08;0.80;;;24.60;54.10;;;;;;5053839;28;20102;-76
2022/07/24 08:10:22;;;;;;;1.42;1.10;;;24.70;54.20;;;;;;5052793;28;20029;-77
2022/07/24 08:12:48;;;;;;;1.25;1.13;;;24.80;54.20;;;;;;5054051;28;20029;-67
2022/07/24 08:15:14;;;;;;;1.67;1.13;;;24.90;53.50;;;;;;5053893;28;20087;-75
2022/07/24 08:17:39;;;;;;;2.42;1.33;;;24.90;52.90;;;;;;5051972;28;20037;-77
2022/07/24 08:20:05;;;;;;;1.75;1.17;;;25.00;52.60;;;;;;5068023;28;20029;-76
2022/07/24 08:22:31;;;;;;;1.20;1.10;;;25.00;52.70;;;;;;5052714;28;20404;-77
2022/07/24 08:24:59;;;;;;;1.10;0.80;;;25.10;52.20;;;;;;5068714;28;20025;-76
2022/07/24 08:27:25;;;;;;;2.42;1.77;;;25.10;52.30;;;;;;5051192;28;20128;-76
2022/07/24 08:29:51;;;;;;;1.80;0.90;;;25.20;52.50;;;;;;5051859;28;20511;-76
2022/07/24 08:32:16;;;;;;;1.10;1.00;;;25.30;52.30;;;;;;5052007;28;20037;-76
2022/07/24 08:34:42;;;;;;;1.45;1.10;;;25.40;52.40;;;;;;5048341;28;20068;-76
2022/07/24 08:37:08;;;;;;;3.95;1.00;;;25.40;51.30;;;;;;5048168;28;20518;-76
2022/07/24 08:39:33;;;;;;;1.05;1.05;;;25.50;51.70;;;;;;5053883;28;20111;-76
2022/07/24 08:42:08;;;;;;;1.10;1.00;;;25.50;51.80;;;;;;5053331;28;20056;-76
2022/07/24 08:44:34;;;;;;;0.88;0.80;;;25.60;51.70;;;;;;5051331;28;20071;-76
2022/07/24 08:47:01;;;;;;;1.30;1.20;;;25.60;51.50;;;;;;5066300;28;20044;-76
2022/07/24 08:49:31;;;;;;;1.10;1.10;;;25.70;51.70;;;;;;5047393;28;20431;-76
2022/07/24 08:52:00;;;;;;;1.30;1.20;;;25.90;51.40;;;;;;5037046;28;20035;-76
2022/07/24 08:54:25;;;;;;;1.00;1.00;;;26.00;51.40;;;;;;5057069;28;20040;-76
2022/07/24 08:56:51;;;;;;;1.10;0.93;;;26.10;51.60;;;;;;5041860;28;20029;-76
2022/07/24 08:59:21;;;;;;;2.00;1.35;;;26.20;50.50;;;;;;5046199;28;20044;-68
2022/07/24 09:01:48;;;;;;;2.72;1.25;;;26.20;51.00;;;;;;5040770;28;20037;-68
2022/07/24 09:04:39;;;;;;;0.80;0.70;;;26.20;50.60;;;;;;5043384;28;20033;-68
2022/07/24 09:07:09;;;;;;;1.05;1.00;;;26.30;50.30;;;;;;5044727;28;21515;-67
2022/07/24 09:09:37;;;;;;;1.10;0.73;;;26.40;50.40;;;;;;5044493;28;20029;-68
2022/07/24 09:12:09;;;;;;;1.38;1.02;;;26.40;50.50;;;;;;5038245;28;20028;-68
2022/07/24 09:14:38;;;;;;;1.35;1.08;;;26.50;50.20;;;;;;5041289;28;20304;-67
2022/07/24 09:17:11;;;;;;;1.48;0.98;;;26.60;50.10;;;;;;5052700;28;20033;-68
2022/07/24 09:19:58;;;;;;;0.95;0.93;;;26.70;50.30;;;;;;5041476;28;20111;-67
2022/07/24 09:22:35;;;;;;;1.05;0.95;;;26.70;49.90;;;;;;5045905;28;20112;-68
2022/07/24 09:25:15;;;;;;;1.55;1.15;;;26.80;49.80;;;;;;5059381;28;20487;-68
2022/07/24 09:27:51;;;;;;;0.60;0.60;;;26.80;49.60;;;;;;5044922;28;20136;-68
2022/07/24 09:30:41;;;;;;;1.27;1.10;;;26.80;49.30;;;;;;5044536;28;20041;-68
2022/07/24 09:33:08;;;;;;;0.80;0.80;;;26.80;49.30;;;;;;5059110;28;20063;-67
2022/07/24 09:35:39;;;;;;;1.65;1.20;;;27.00;49.30;;;;;;5037612;28;20487;-76
2022/07/24 09:38:17;;;;;;;0.82;0.82;;;27.00;49.40;;;;;;5041385;28;20055;-76
2022/07/24 09:40:46;;;;;;;1.95;0.90;;;27.20;49.50;;;;;;5041478;28;20028;-76
2022/07/24 09:43:16;;;;;;;0.80;0.80;;;27.30;49.20;;;;;;5041325;28;20079;-76
2022/07/24 09:46:00;;;;;;;0.90;0.90;;;27.30;48.50;;;;;;5039433;28;20029;-76
2022/07/24 09:48:27;;;;;;;0.90;0.90;;;27.30;48.70;;;;;;5044807;28;20037;-76
2022/07/24 09:50:56;;;;;;;1.00;0.80;;;27.40;48.70;;;;;;5041673;28;20490;-76
2022/07/24 09:53:25;;;;;;;0.77;0.70;;;27.40;48.40;;;;;;5041928;28;20045;-71
2022/07/24 09:56:06;;;;;;;1.63;1.25;;;27.50;48.80;;;;;;5044658;28;20116;-71
2022/07/24 09:58:35;;;;;;;0.80;0.70;;;27.60;49.00;;;;;;5040072;28;20023;-70
2022/07/24 10:01:01;;;;;;;0.93;0.90;;;27.70;48.20;;;;;;5039748;28;20033;-71
2022/07/24 10:03:29;;;;;;;0.95;0.88;;;27.70;48.40;;;;;;5036227;28;20354;-71
2022/07/24 10:05:58;;;;;;;0.93;0.90;;;27.90;48.50;;;;;;5037551;28;20029;-71
2022/07/24 10:08:25;;;;;;;0.73;0.73;;;28.10;47.80;;;;;;5043671;28;20099;-71
2022/07/24 10:10:51;;;;;;;1.27;1.17;;;28.00;46.50;;;;;;5042410;28;20041;-70
2022/07/24 10:13:17;;;;;;;1.20;0.88;;;27.90;46.50;;;;;;5041838;28;20035;-71
2022/07/24 10:16:04;;;;;;;1.23;1.13;;;28.00;47.30;;;;;;5052464;28;20496;-70
2022/07/24 10:18:48;;;;;;;0.80;0.80;;;28.20;47.40;;;;;;5035292;28;20498;-70
2022/07/24 10:21:20;;;;;;;0.60;0.60;;;28.30;46.80;;;;;;5042002;28;20097;-71
2022/07/24 10:23:57;;;;;;;3.42;0.80;;;28.30;47.00;;;;;;5045123;28;20029;-64
2022/07/24 10:26:40;;;;;;;0.85;0.85;;;28.50;46.60;;;;;;5058932;28;20059;-64
2022/07/24 10:29:20;;;;;;;0.68;0.68;;;28.60;46.40;;;;;;5042813;28;20036;-71
2022/07/24 10:31:52;;;;;;;2.03;1.27;;;28.70;46.10;;;;;;5046099;28;20029;-71
2022/07/24 10:34:39;;;;;;;1.90;1.15;;;28.70;45.60;;;;;;5043291;28;20025;-70
2022/07/24 10:37:26;;;;;;;1.45;0.80;;;28.70;45.50;;;;;;5048663;28;20090;-70
2022/07/24 10:40:22;;;;;;;0.70;0.70;;;28.70;45.10;;;;;;5039627;28;20180;-71
2022/07/24 10:43:08;;;;;;;1.10;0.80;;;28.80;45.60;;;;;;5040076;28;20030;-71
2022/07/24 10:45:35;;;;;;;0.77;0.77;;;29.00;44.10;;;;;;5046466;28;20031;-71
2022/07/24 10:48:19;;;;;;;0.73;0.73;;;29.10;44.60;;;;;;5037952;28;20489;-71
2022/07/24 10:51:13;;;;;;;0.90;0.90;;;29.30;45.10;;;;;;5039575;28;20025;-70
2022/07/24 10:53:47;;;;;;;0.82;0.82;;;29.60;44.30;;;;;;5047611;28;20076;-71
2022/07/24 10:56:27;;;;;;;0.80;0.80;;;29.50;43.60;;;;;;5041707;28;20025;-71
2022/07/24 10:59:04;;;;;;;1.00;0.90;;;29.60;43.30;;;;;;5046400;28;20543;-71
2022/07/24 11:01:35;;;;;;;1.30;1.20;;;29.60;43.20;;;;;;5040791;28;20506;-71
2022/07/24 11:04:19;;;;;;;1.30;0.70;;;29.80;43.60;;;;;;5054797;28;20036;-70
2022/07/24 11:07:12;;;;;;;1.15;0.82;;;30.00;42.20;;;;;;5038537;28;20097;-70
2022/07/24 11:10:01;;;;;;;2.17;1.20;;;30.00;42.30;;;;;;5039605;28;20060;-70
2022/07/24 11:12:32;;;;;;;0.70;0.70;;;30.00;42.50;;;;;;5042262;28;20047;-70
2022/07/24 11:15:53;;;;;;;1.07;1.00;;;30.10;42.90;;;;;;5038320;28;20083;-70
2022/07/24 11:17:47;;;;;;;0.75;0.63;;;30.20;43.00;;;;;;5045500;28;20700;-70
2022/07/24 11:20:15;;;;;;;0.77;0.77;;;30.30;42.50;;;;;;5042185;28;20745;-65
2022/07/24 11:22:47;;;;;;;1.08;0.80;;;30.30;42.80;;;;;;5041314;28;20021;-65
2022/07/24 11:25:30;;;;;;;0.77;0.77;;;30.30;42.80;;;;;;5040617;28;20693;-65
2022/07/24 11:28:11;;;;;;;0.70;0.70;;;30.40;42.70;;;;;;5039129;28;20067;-65
2022/07/24 11:30:42;;;;;;;1.20;1.00;;;30.50;43.00;;;;;;5039354;28;20430;-65
2022/07/24 11:33:09;;;;;;;0.63;0.63;;;30.80;43.00;;;;;;5041143;28;20510;-65
2022/07/24 11:35:37;;;;;;;0.70;0.70;;;31.00;42.70;;;;;;5020239;28;20287;-71
2022/07/24 11:38:05;;;;;;;0.77;0.77;;;31.10;42.30;;;;;;5045348;28;20033;-71
2022/07/24 11:40:31;;;;;;;1.10;1.00;;;31.20;41.80;;;;;;5045726;28;20055;-64
2022/07/24 11:43:02;;;;;;;1.40;1.27;;;31.20;41.40;;;;;;5049177;28;20116;-71
2022/07/24 11:45:28;;;;;;;1.00;0.98;;;31.20;41.50;;;;;;5046171;28;20033;-71
2022/07/24 11:47:55;;;;;;;0.90;0.80;;;31.20;41.90;;;;;;5044358;28;20041;-71
2022/07/24 11:50:23;;;;;;;0.77;0.70;;;31.20;42.00;;;;;;5036825;28;20104;-71
2022/07/24 11:52:50;;;;;;;0.80;0.80;;;31.40;42.30;;;;;;5046631;28;20476;-71
2022/07/24 11:55:19;;;;;;;1.00;1.00;;;31.50;41.60;;;;;;5042532;28;20033;-70
2022/07/24 11:57:53;;;;;;;0.90;0.88;;;31.50;41.90;;;;;;5048563;28;20044;-71
2022/07/24 12:00:27;;;;;;;1.33;1.20;;;31.50;41.30;;;;;;5040600;28;20022;-65
2022/07/24 12:02:56;;;;;;;1.33;1.00;;;31.50;41.70;;;;;;5040753;28;20461;-64
2022/07/24 12:05:28;;;;;;;0.75;0.73;;;31.50;42.40;;;;;;5047939;28;20017;-65
2022/07/24 12:07:56;;;;;;;0.95;0.95;;;31.70;42.30;;;;;;5047833;28;20478;-70
2022/07/24 12:10:22;;;;;;;0.80;0.80;;;32.00;42.00;;;;;;5049604;28;20029;-71
2022/07/24 12:12:50;;;;;;;1.30;1.20;;;32.10;41.50;;;;;;5063648;28;20040;-71
2022/07/24 12:15:16;;;;;;;1.00;0.95;;;32.10;41.00;;;;;;5037654;28;20052;-68
2022/07/24 12:18:03;;;;;;;1.20;0.90;;;32.10;40.80;;;;;;5048070;28;20107;-66
2022/07/24 12:20:38;;;;;;;1.17;1.00;;;32.20;40.90;;;;;;5036680;28;20104;-71
2022/07/24 12:23:12;;;;;;;2.17;1.08;;;32.30;40.80;;;;;;5042305;28;20029;-71
2022/07/24 12:25:38;;;;;;;0.98;0.80;;;32.30;40.80;;;;;;5036347;28;20554;-65
2022/07/24 12:28:08;;;;;;;0.90;0.90;;;32.20;41.00;;;;;;5040715;28;20050;-65
2022/07/24 12:30:55;;;;;;;1.00;0.90;;;32.30;41.20;;;;;;5039530;28;20030;-65
2022/07/24 12:33:26;;;;;;;1.13;1.02;;;32.60;41.00;;;;;;5037601;28;20446;-65
2022/07/24 12:35:56;;;;;;;0.90;0.90;;;32.60;40.60;;;;;;5044931;28;20021;-72
2022/07/24 12:38:33;;;;;;;1.35;0.90;;;32.70;40.80;;;;;;5033217;28;20535;-71
2022/07/24 12:41:06;;;;;;;1.10;1.10;;;32.80;40.70;;;;;;5043887;28;20043;-71
2022/07/24 12:43:32;;;;;;;0.88;0.80;;;32.90;40.40;;;;;;5040102;28;20026;-71
2022/07/24 12:46:05;;;;;;;0.80;0.80;;;33.00;40.40;;;;;;5043730;28;20484;-71
2022/07/24 12:48:31;;;;;;;0.90;0.90;;;33.10;40.60;;;;;;5047863;28;20684;-65
2022/07/24 12:51:02;;;;;;;0.85;0.85;;;33.40;40.80;;;;;;5038538;28;20028;-71
2022/07/24 12:53:29;;;;;;;0.73;0.70;;;33.50;40.40;;;;;;5049208;28;20515;-71